Time;durP1;ratioP1;P1;durP2;ratioP2;P2;SDS_P1;SDS_P2;PMS_P1;PMS_P2;Temp;Humidity;BMP_temperature;BMP_pressure;BME280_temperature;BME280_humidity;BME280_pressure;Samples;Min_cycle;Max_cycle;Signal;HPM_P1;HPM_P2
2023/06/18 00:00:45;;;;;;;22.25;19.45;;;14.80;99.90;;;;;;2093755;28;20028;-81
2023/06/18 00:01:45;;;;;;;20.75;18.30;;;14.80;99.90;;;;;;2099808;28;20514;-80
2023/06/18 00:02:46;;;;;;;22.77;20.35;;;14.80;99.90;;;;;;2102792;28;20453;-79
2023/06/18 00:03:46;;;;;;;23.50;19.55;;;14.80;99.90;;;;;;2096135;28;20028;-79
2023/06/18 00:04:47;;;;;;;23.75;20.02;;;14.70;99.90;;;;;;2101523;28;20043;-81
2023/06/18 00:05:47;;;;;;;24.63;20.17;;;14.80;99.90;;;;;;2099286;28;20016;-82
2023/06/18 00:06:48;;;;;;;24.58;20.67;;;14.80;99.90;;;;;;2086586;28;20043;-82
2023/06/18 00:07:49;;;;;;;23.00;19.80;;;14.70;99.90;;;;;;2087814;28;20033;-81
2023/06/18 00:08:50;;;;;;;22.77;19.95;;;14.70;99.90;;;;;;2088806;28;20036;-80
2023/06/18 00:09:50;;;;;;;22.75;20.35;;;14.70;99.90;;;;;;2097388;28;20423;-80
2023/06/18 00:10:52;;;;;;;23.98;20.08;;;14.70;99.90;;;;;;2096123;28;20047;-81
2023/06/18 00:11:53;;;;;;;25.85;21.00;;;14.60;99.90;;;;;;2093047;28;20032;-80
2023/06/18 00:12:53;;;;;;;24.55;20.73;;;14.60;99.90;;;;;;2092321;28;20693;-81
2023/06/18 00:13:54;;;;;;;23.45;20.17;;;14.60;99.90;;;;;;2099431;28;20431;-80
2023/06/18 00:14:55;;;;;;;24.50;19.58;;;14.60;99.90;;;;;;2101314;28;20042;-81
2023/06/18 00:15:55;;;;;;;22.38;19.92;;;14.60;99.90;;;;;;2097898;28;20880;-81
2023/06/18 00:16:56;;;;;;;24.10;20.42;;;14.60;99.90;;;;;;2091536;28;20057;-81
2023/06/18 00:17:56;;;;;;;23.38;20.85;;;14.60;99.90;;;;;;2074605;28;20021;-78
2023/06/18 00:18:57;;;;;;;22.73;19.88;;;14.60;99.90;;;;;;2076396;28;20126;-80
2023/06/18 00:19:58;;;;;;;22.98;19.67;;;14.60;99.90;;;;;;2078418;28;20613;-81
2023/06/18 00:20:59;;;;;;;25.05;20.83;;;14.50;99.90;;;;;;2087330;28;20028;-81
2023/06/18 00:21:59;;;;;;;25.63;21.42;;;14.60;99.90;;;;;;2097467;28;20024;-81
2023/06/18 00:23:00;;;;;;;23.17;20.33;;;14.50;99.90;;;;;;2102696;28;20031;-81
2023/06/18 00:24:01;;;;;;;23.95;20.58;;;14.50;99.90;;;;;;2090733;28;20055;-81
2023/06/18 00:25:01;;;;;;;23.33;20.58;;;14.50;99.90;;;;;;2098586;28;20408;-81
2023/06/18 00:26:02;;;;;;;24.02;19.95;;;14.50;99.90;;;;;;2099239;28;20974;-81
2023/06/18 00:27:03;;;;;;;22.85;20.15;;;14.50;99.90;;;;;;2100274;28;20545;-81
2023/06/18 00:28:04;;;;;;;24.45;20.42;;;14.50;99.90;;;;;;2094680;28;20443;-81
2023/06/18 00:29:05;;;;;;;24.85;20.75;;;14.50;99.90;;;;;;2086261;28;20044;-80
2023/06/18 00:30:09;;;;;;;22.98;20.17;;;14.50;99.90;;;;;;2088719;28;20082;-81
2023/06/18 00:31:11;;;;;;;22.58;19.90;;;14.50;99.90;;;;;;2100213;28;20103;-80
2023/06/18 00:32:12;;;;;;;23.85;20.20;;;14.50;99.90;;;;;;2100515;28;20028;-79
2023/06/18 00:33:13;;;;;;;22.85;19.98;;;14.40;99.90;;;;;;2092044;28;20428;-80
2023/06/18 00:34:15;;;;;;;25.65;19.98;;;14.40;99.90;;;;;;2093059;28;20223;-80
2023/06/18 00:35:15;;;;;;;22.42;19.55;;;14.40;99.90;;;;;;2094160;28;20143;-80
2023/06/18 00:36:19;;;;;;;21.33;19.02;;;14.40;99.90;;;;;;2097483;28;20032;-80
2023/06/18 00:37:20;;;;;;;21.75;19.08;;;14.40;99.90;;;;;;2097574;28;20081;-80
2023/06/18 00:38:20;;;;;;;23.35;19.92;;;14.40;99.90;;;;;;2088123;28;20025;-81
2023/06/18 00:39:22;;;;;;;23.17;20.13;;;14.40;99.90;;;;;;2095493;28;20028;-81
2023/06/18 00:40:22;;;;;;;23.20;19.70;;;14.40;99.90;;;;;;2091534;28;20098;-81
2023/06/18 00:41:27;;;;;;;24.48;20.67;;;14.40;99.90;;;;;;2087976;28;20040;-80
2023/06/18 00:42:28;;;;;;;21.48;19.17;;;14.40;99.90;;;;;;2087625;28;20066;-78
2023/06/18 00:43:28;;;;;;;22.10;19.73;;;14.40;99.90;;;;;;2096462;28;20040;-80
2023/06/18 00:44:29;;;;;;;22.90;19.73;;;14.40;99.90;;;;;;2098279;28;20031;-80
2023/06/18 00:45:30;;;;;;;21.90;19.48;;;14.40;99.90;;;;;;2094549;28;20280;-79
2023/06/18 00:46:35;;;;;;;22.58;19.10;;;14.30;99.90;;;;;;2094040;28;20028;-80
2023/06/18 00:47:37;;;;;;;22.48;19.10;;;14.30;99.90;;;;;;2094583;28;20529;-81
2023/06/18 00:48:37;;;;;;;22.35;19.85;;;14.30;99.90;;;;;;2087955;28;20055;-81
2023/06/18 00:49:41;;;;;;;23.27;19.73;;;14.30;99.90;;;;;;2079572;28;20056;-81
2023/06/18 00:50:42;;;;;;;23.13;20.55;;;14.30;99.90;;;;;;2082593;28;20044;-81
2023/06/18 00:51:44;;;;;;;21.88;19.58;;;14.30;99.90;;;;;;2093654;28;20348;-81
2023/06/18 00:52:47;;;;;;;23.08;20.08;;;14.30;99.90;;;;;;2099577;28;20020;-79
2023/06/18 00:53:48;;;;;;;21.70;19.45;;;14.30;99.90;;;;;;2079225;28;20029;-79
2023/06/18 00:54:50;;;;;;;23.20;20.58;;;14.30;99.90;;;;;;2088024;28;20032;-80
2023/06/18 00:55:51;;;;;;;23.42;20.02;;;14.30;99.90;;;;;;2091953;28;20130;-80
2023/06/18 00:56:52;;;;;;;24.13;20.63;;;14.30;99.90;;;;;;2089394;28;20020;-81
2023/06/18 00:57:59;;;;;;;23.05;20.15;;;14.20;99.90;;;;;;2090602;28;20832;-80
2023/06/18 00:59:00;;;;;;;22.55;19.50;;;14.30;99.90;;;;;;2101039;28;20035;-80
2023/06/18 01:00:09;;;;;;;24.20;20.50;;;14.20;99.90;;;;;;2097919;28;20100;-80
2023/06/18 01:01:10;;;;;;;24.67;21.48;;;14.20;99.90;;;;;;2094102;28;20028;-79
2023/06/18 01:02:12;;;;;;;23.77;20.77;;;14.20;99.90;;;;;;2092513;28;20033;-80
2023/06/18 01:03:18;;;;;;;23.48;20.20;;;14.20;99.90;;;;;;2100481;28;20016;-79
2023/06/18 01:04:21;;;;;;;25.50;20.25;;;14.20;99.90;;;;;;2092879;28;20439;-80
2023/06/18 01:05:23;;;;;;;23.45;20.95;;;14.20;99.90;;;;;;2101634;28;20032;-80
2023/06/18 01:06:24;;;;;;;25.25;21.05;;;14.10;99.90;;;;;;2102175;28;20473;-81
2023/06/18 01:07:26;;;;;;;26.25;20.98;;;14.10;99.90;;;;;;2085153;28;20606;-80
2023/06/18 01:08:32;;;;;;;25.88;21.02;;;14.20;99.90;;;;;;2088099;28;20132;-80
2023/06/18 01:09:33;;;;;;;24.77;20.52;;;14.20;99.90;;;;;;2088894;28;20490;-80
2023/06/18 01:10:39;;;;;;;24.40;21.25;;;14.10;99.90;;;;;;2090905;28;20036;-78
2023/06/18 01:11:40;;;;;;;23.25;20.52;;;14.10;99.90;;;;;;2096760;28;20082;-80
2023/06/18 01:12:48;;;;;;;22.65;20.15;;;14.10;99.90;;;;;;2104498;28;20028;-80
2023/06/18 01:13:52;;;;;;;23.33;20.20;;;14.10;99.90;;;;;;2100346;28;20024;-80
2023/06/18 01:14:56;;;;;;;24.02;20.33;;;14.10;99.90;;;;;;2099253;28;20028;-79
2023/06/18 01:16:07;;;;;;;24.10;21.25;;;14.00;99.90;;;;;;2095720;28;20500;-79
2023/06/18 01:17:08;;;;;;;24.38;21.13;;;14.00;99.90;;;;;;2089124;28;20021;-81
2023/06/18 01:18:10;;;;;;;24.58;20.42;;;14.00;99.90;;;;;;2098390;28;20039;-81
2023/06/18 01:19:35;;;;;;;24.42;20.75;;;14.00;99.90;;;;;;2104486;28;20507;-81
2023/06/18 01:20:40;;;;;;;23.35;20.45;;;14.00;99.90;;;;;;2100015;28;20040;-81
2023/06/18 01:21:44;;;;;;;22.83;20.10;;;13.90;99.90;;;;;;2099852;28;20028;-80
2023/06/18 01:23:00;;;;;;;23.33;19.52;;;13.90;99.90;;;;;;2103085;28;20031;-78
2023/06/18 01:24:11;;;;;;;22.52;20.13;;;13.90;99.90;;;;;;2092596;28;20290;-81
2023/06/18 01:25:13;;;;;;;21.95;19.45;;;13.90;99.90;;;;;;2096904;28;20033;-80
2023/06/18 01:26:14;;;;;;;22.10;19.60;;;13.90;99.90;;;;;;2085934;28;20134;-81
2023/06/18 01:27:17;;;;;;;22.63;20.23;;;13.90;99.90;;;;;;2090595;28;20032;-81
2023/06/18 01:28:18;;;;;;;21.85;19.02;;;13.90;99.90;;;;;;2083900;28;20036;-80
2023/06/18 01:29:18;;;;;;;23.13;19.88;;;13.90;99.90;;;;;;2096999;28;20539;-82
2023/06/18 01:30:20;;;;;;;21.88;19.48;;;13.80;99.90;;;;;;2096056;28;20020;-80
2023/06/18 01:31:23;;;;;;;23.77;19.58;;;13.80;99.90;;;;;;2093241;28;20076;-78
2023/06/18 01:32:24;;;;;;;22.98;19.70;;;13.80;99.90;;;;;;2094164;28;20576;-79
2023/06/18 01:33:25;;;;;;;21.50;19.08;;;13.80;99.90;;;;;;2087904;28;20028;-80
2023/06/18 01:34:27;;;;;;;22.30;19.30;;;13.80;99.90;;;;;;2097618;28;20031;-80
2023/06/18 01:35:27;;;;;;;22.75;19.85;;;13.80;99.90;;;;;;2099968;28;20033;-80
2023/06/18 01:36:53;;;;;;;21.50;18.92;;;13.80;99.90;;;;;;2103318;28;20170;-80
2023/06/18 01:38:24;;;;;;;22.65;20.25;;;13.80;99.90;;;;;;2099209;28;20592;-80
2023/06/18 01:39:38;;;;;;;23.38;19.88;;;13.80;99.90;;;;;;2104651;28;20047;-80
2023/06/18 01:40:56;;;;;;;23.90;19.65;;;13.70;99.90;;;;;;2101283;28;20339;-80
2023/06/18 01:42:09;;;;;;;22.05;19.10;;;13.70;99.90;;;;;;2095178;28;20025;-80
2023/06/18 01:43:40;;;;;;;22.23;19.20;;;13.70;99.90;;;;;;2082975;28;20033;-81
2023/06/18 01:44:44;;;;;;;22.00;19.60;;;13.70;99.90;;;;;;2084085;28;20122;-81
2023/06/18 01:45:57;;;;;;;23.08;19.58;;;13.70;99.90;;;;;;2083226;28;20037;-80
2023/06/18 01:46:58;;;;;;;21.40;19.10;;;13.70;99.90;;;;;;2092282;28;20025;-81
2023/06/18 01:48:04;;;;;;;21.88;19.05;;;13.70;99.90;;;;;;2095377;28;20062;-82
2023/06/18 01:49:07;;;;;;;20.27;18.05;;;13.70;99.90;;;;;;2085117;28;20516;-80
2023/06/18 01:50:11;;;;;;;22.20;18.52;;;13.70;99.90;;;;;;2086090;28;20156;-81
2023/06/18 01:51:15;;;;;;;22.10;18.65;;;13.70;99.90;;;;;;2089585;28;20117;-81
2023/06/18 01:52:16;;;;;;;20.67;18.13;;;13.70;99.90;;;;;;2094303;28;21089;-80
2023/06/18 01:53:18;;;;;;;20.65;18.45;;;13.70;99.90;;;;;;2094863;28;20032;-80
2023/06/18 01:54:21;;;;;;;21.42;18.75;;;13.70;99.90;;;;;;2096391;28;20638;-78
2023/06/18 01:55:22;;;;;;;20.90;18.63;;;13.70;99.90;;;;;;2093922;28;20059;-80
2023/06/18 01:56:28;;;;;;;21.90;18.90;;;13.70;99.90;;;;;;2087119;28;20091;-80
2023/06/18 01:57:31;;;;;;;21.95;18.88;;;13.70;99.90;;;;;;2088542;28;20129;-80
2023/06/18 01:58:33;;;;;;;20.67;18.27;;;13.70;99.90;;;;;;2095981;28;20028;-81
2023/06/18 01:59:34;;;;;;;19.77;17.67;;;13.70;99.90;;;;;;2092646;28;20037;-80
2023/06/18 02:00:34;;;;;;;19.70;17.60;;;13.60;99.90;;;;;;2097669;28;20112;-81
2023/06/18 02:01:35;;;;;;;18.92;16.98;;;13.60;99.90;;;;;;2102046;28;20813;-81
2023/06/18 02:02:36;;;;;;;22.63;17.58;;;13.60;99.90;;;;;;2094919;28;20028;-79
2023/06/18 02:03:37;;;;;;;19.90;17.75;;;13.60;99.90;;;;;;2091631;28;20089;-79
2023/06/18 02:04:43;;;;;;;19.73;17.63;;;13.60;99.90;;;;;;2094837;28;20028;-80
2023/06/18 02:05:44;;;;;;;21.05;17.45;;;13.60;99.90;;;;;;2093700;28;20027;-80
2023/06/18 02:06:45;;;;;;;20.70;17.58;;;13.60;99.90;;;;;;2094521;28;20040;-80
2023/06/18 02:07:45;;;;;;;19.88;17.77;;;13.60;99.90;;;;;;2094914;28;20093;-80
2023/06/18 02:08:46;;;;;;;19.25;17.20;;;13.60;99.90;;;;;;2085282;28;20956;-81
2023/06/18 02:09:46;;;;;;;19.60;17.23;;;13.60;99.90;;;;;;2073896;28;20260;-81
2023/06/18 02:10:47;;;;;;;19.83;17.65;;;13.60;99.90;;;;;;2087537;28;20028;-79
2023/06/18 02:11:48;;;;;;;22.05;18.20;;;13.60;99.90;;;;;;2101798;28;20066;-76
2023/06/18 02:12:51;;;;;;;19.85;17.75;;;13.60;99.90;;;;;;2093386;28;20515;-74
2023/06/18 02:13:51;;;;;;;19.98;17.55;;;13.60;99.90;;;;;;2093280;28;20111;-80
2023/06/18 02:14:52;;;;;;;20.13;18.02;;;13.60;99.90;;;;;;2101178;28;20095;-75
2023/06/18 02:15:52;;;;;;;19.02;17.05;;;13.60;99.90;;;;;;2097106;28;20028;-81
2023/06/18 02:16:55;;;;;;;19.30;17.30;;;13.60;99.90;;;;;;2095318;28;20517;-80
2023/06/18 02:17:56;;;;;;;18.98;16.98;;;13.60;99.90;;;;;;2098679;28;20035;-80
2023/06/18 02:18:57;;;;;;;19.38;17.17;;;13.60;99.90;;;;;;2099035;28;20530;-80
2023/06/18 02:19:57;;;;;;;19.02;16.63;;;13.60;99.90;;;;;;2096111;28;20044;-77
2023/06/18 02:20:59;;;;;;;20.20;17.25;;;13.60;99.90;;;;;;2103025;28;20020;-81
2023/06/18 02:22:01;;;;;;;19.38;17.25;;;13.60;99.90;;;;;;2088195;28;20025;-80
2023/06/18 02:23:01;;;;;;;19.55;17.45;;;13.60;99.90;;;;;;2089778;28;20033;-80
2023/06/18 02:24:02;;;;;;;19.83;17.67;;;13.50;99.90;;;;;;2100733;28;20295;-82
2023/06/18 02:25:04;;;;;;;21.02;17.77;;;13.50;99.90;;;;;;2093541;28;20114;-79
2023/06/18 02:26:05;;;;;;;19.45;17.42;;;13.50;99.90;;;;;;2090393;28;20024;-80
2023/06/18 02:27:06;;;;;;;20.45;18.23;;;13.50;99.90;;;;;;2090159;28;20021;-80
2023/06/18 02:28:07;;;;;;;18.90;16.77;;;13.50;99.90;;;;;;2098641;28;20028;-80
2023/06/18 02:29:08;;;;;;;19.55;17.17;;;13.50;99.90;;;;;;2102547;28;20024;-79
2023/06/18 02:30:08;;;;;;;18.88;16.88;;;13.50;99.90;;;;;;2093033;28;20044;-80
2023/06/18 02:31:11;;;;;;;19.27;17.27;;;13.50;99.90;;;;;;2085790;28;20407;-81
2023/06/18 02:32:11;;;;;;;18.83;16.83;;;13.50;99.90;;;;;;2085382;28;20104;-80
2023/06/18 02:33:12;;;;;;;19.63;17.30;;;13.50;99.90;;;;;;2088085;28;20560;-80
2023/06/18 02:34:15;;;;;;;18.52;16.58;;;13.50;99.90;;;;;;2101329;28;20011;-80
2023/06/18 02:35:16;;;;;;;18.75;16.70;;;13.50;99.90;;;;;;2093321;28;20090;-80
2023/06/18 02:36:17;;;;;;;19.67;16.60;;;13.50;99.90;;;;;;2101946;28;20075;-80
2023/06/18 02:37:17;;;;;;;19.27;17.17;;;13.50;99.90;;;;;;2098178;28;20074;-80
2023/06/18 02:38:19;;;;;;;19.48;17.38;;;13.50;99.90;;;;;;2098453;28;20024;-78
2023/06/18 02:39:19;;;;;;;18.35;16.45;;;13.50;99.90;;;;;;2102781;28;20075;-80
2023/06/18 02:40:20;;;;;;;18.48;16.48;;;13.50;99.90;;;;;;2084009;28;20424;-80
2023/06/18 02:41:21;;;;;;;18.65;16.65;;;13.50;99.90;;;;;;2100455;28;20023;-80
2023/06/18 02:42:22;;;;;;;18.30;16.40;;;13.50;99.90;;;;;;2100460;28;20024;-79
2023/06/18 02:43:22;;;;;;;17.90;16.08;;;13.40;99.90;;;;;;2087844;28;20112;-79
2023/06/18 02:44:24;;;;;;;18.35;16.45;;;13.40;99.90;;;;;;2106039;28;20050;-80
2023/06/18 02:45:26;;;;;;;19.23;16.23;;;13.40;99.90;;;;;;2090067;28;20119;-80
2023/06/18 02:46:26;;;;;;;18.52;16.55;;;13.40;99.90;;;;;;2090091;28;20367;-80
2023/06/18 02:47:27;;;;;;;18.02;16.15;;;13.40;99.90;;;;;;2099754;28;20052;-79
2023/06/18 02:48:28;;;;;;;18.10;15.30;;;13.40;99.90;;;;;;2101330;28;20035;-80
2023/06/18 02:49:28;;;;;;;18.15;16.02;;;13.40;99.90;;;;;;2096939;28;20390;-80
2023/06/18 02:50:30;;;;;;;16.52;14.70;;;13.30;99.90;;;;;;2085004;28;20021;-80
2023/06/18 02:51:31;;;;;;;18.42;16.35;;;13.30;99.90;;;;;;2091516;28;20035;-79
2023/06/18 02:52:32;;;;;;;17.95;16.15;;;13.40;99.90;;;;;;2083072;28;20526;-79
2023/06/18 02:53:32;;;;;;;17.92;16.02;;;13.40;99.90;;;;;;2100319;28;20055;-80
2023/06/18 02:54:33;;;;;;;16.38;14.68;;;13.40;99.90;;;;;;2093273;28;20101;-80
2023/06/18 02:55:34;;;;;;;17.27;15.52;;;13.30;99.90;;;;;;2093053;28;20031;-80
2023/06/18 02:56:35;;;;;;;17.67;15.32;;;13.30;99.90;;;;;;2091054;28;20458;-80
2023/06/18 02:57:37;;;;;;;17.55;15.65;;;13.30;99.90;;;;;;2082709;28;20417;-81
2023/06/18 02:58:38;;;;;;;18.27;16.25;;;13.30;99.90;;;;;;2087239;28;20024;-81
2023/06/18 02:59:39;;;;;;;17.88;15.55;;;13.40;99.90;;;;;;2087916;28;20028;-80
2023/06/18 03:00:40;;;;;;;17.20;15.40;;;13.40;99.90;;;;;;2094500;28;20024;-80
2023/06/18 03:01:40;;;;;;;18.95;15.23;;;13.40;99.90;;;;;;2097170;28;20039;-80
2023/06/18 03:02:42;;;;;;;17.02;15.32;;;13.40;99.90;;;;;;2096249;28;20028;-79
2023/06/18 03:03:46;;;;;;;17.02;15.23;;;13.40;99.90;;;;;;2085810;28;20029;-80
2023/06/18 03:04:47;;;;;;;17.55;15.65;;;13.40;99.90;;;;;;2084124;28;20104;-80
2023/06/18 03:05:48;;;;;;;18.08;15.63;;;13.40;99.90;;;;;;2076601;28;20025;-80
2023/06/18 03:06:48;;;;;;;17.55;15.73;;;13.40;99.90;;;;;;2086212;28;20471;-81
2023/06/18 03:07:50;;;;;;;17.63;15.82;;;13.40;99.90;;;;;;2094704;28;20082;-80
2023/06/18 03:08:52;;;;;;;17.08;15.27;;;13.40;99.90;;;;;;2084425;28;20033;-81
2023/06/18 03:09:53;;;;;;;17.48;15.73;;;13.40;99.90;;;;;;2093187;28;20025;-80
2023/06/18 03:10:54;;;;;;;18.08;16.27;;;13.40;99.90;;;;;;2094534;28;20083;-81
2023/06/18 03:11:55;;;;;;;18.35;16.45;;;13.40;99.90;;;;;;2092146;28;20048;-80
2023/06/18 03:12:56;;;;;;;17.48;15.63;;;13.40;99.90;;;;;;2092609;28;20066;-80
2023/06/18 03:14:07;;;;;;;18.05;16.00;;;13.40;99.90;;;;;;2093332;28;20032;-81
2023/06/18 03:15:08;;;;;;;20.35;15.90;;;13.40;99.90;;;;;;2095335;28;20074;-80
2023/06/18 03:16:09;;;;;;;18.27;16.38;;;13.40;99.90;;;;;;2085323;28;20552;-80
2023/06/18 03:17:10;;;;;;;18.35;15.68;;;13.40;99.90;;;;;;2084219;28;20028;-79
2023/06/18 03:18:11;;;;;;;19.92;16.25;;;13.40;99.90;;;;;;2085359;28;20507;-80
2023/06/18 03:19:12;;;;;;;17.63;15.77;;;13.40;99.90;;;;;;2083793;28;20031;-80
2023/06/18 03:20:15;;;;;;;18.80;16.23;;;13.40;99.90;;;;;;2082490;28;20115;-80
2023/06/18 03:21:20;;;;;;;16.83;15.02;;;13.40;99.90;;;;;;2094405;28;20032;-80
2023/06/18 03:22:25;;;;;;;17.45;15.60;;;13.50;99.90;;;;;;2091177;28;20551;-78
2023/06/18 03:23:26;;;;;;;20.33;16.20;;;13.50;99.90;;;;;;2086739;28;20447;-80
2023/06/18 03:24:27;;;;;;;16.75;15.00;;;13.50;99.90;;;;;;2077947;28;20025;-81
2023/06/18 03:25:28;;;;;;;16.52;14.68;;;13.50;99.90;;;;;;2086744;28;20459;-80
2023/06/18 03:26:29;;;;;;;16.08;14.48;;;13.50;99.90;;;;;;2098148;28;20143;-80
2023/06/18 03:27:29;;;;;;;16.70;14.57;;;13.50;99.90;;;;;;2101376;28;20029;-80
2023/06/18 03:28:30;;;;;;;16.25;14.60;;;13.50;99.90;;;;;;2100881;28;20414;-80
2023/06/18 03:29:34;;;;;;;16.17;14.57;;;13.50;99.90;;;;;;2101381;28;20422;-80
2023/06/18 03:30:38;;;;;;;16.25;14.55;;;13.60;99.90;;;;;;2096050;28;20590;-81
2023/06/18 03:31:39;;;;;;;15.60;14.00;;;13.50;99.90;;;;;;2092561;28;20078;-81
2023/06/18 03:32:42;;;;;;;15.85;14.10;;;13.50;99.90;;;;;;2089234;28;20029;-80
2023/06/18 03:33:43;;;;;;;15.38;13.70;;;13.60;99.90;;;;;;2086017;28;20534;-80
2023/06/18 03:34:48;;;;;;;16.35;14.00;;;13.60;99.90;;;;;;2086343;28;20116;-80
2023/06/18 03:35:51;;;;;;;15.65;14.05;;;13.60;99.90;;;;;;2095090;28;20125;-81
2023/06/18 03:36:53;;;;;;;15.63;13.85;;;13.60;99.90;;;;;;2086244;28;21190;-82
2023/06/18 03:37:57;;;;;;;16.02;14.27;;;13.70;99.90;;;;;;2081821;28;20091;-79
2023/06/18 03:38:58;;;;;;;14.85;13.35;;;13.60;99.90;;;;;;2089793;28;20033;-80
2023/06/18 03:39:59;;;;;;;14.55;13.13;;;13.70;99.90;;;;;;2096032;28;20028;-80
2023/06/18 03:40:59;;;;;;;14.38;12.88;;;13.70;99.90;;;;;;2103146;28;20022;-81
2023/06/18 03:42:01;;;;;;;14.80;13.30;;;13.70;99.90;;;;;;2099820;28;20684;-80
2023/06/18 03:43:01;;;;;;;15.80;13.70;;;13.70;99.90;;;;;;2091758;28;20031;-80
2023/06/18 03:44:04;;;;;;;15.05;13.45;;;13.70;99.90;;;;;;2097459;28;20715;-81
2023/06/18 03:45:06;;;;;;;14.90;13.45;;;13.70;99.90;;;;;;2082298;28;20035;-81
2023/06/18 03:46:06;;;;;;;15.25;13.65;;;13.70;99.90;;;;;;2078347;28;20025;-80
2023/06/18 03:47:07;;;;;;;16.00;14.32;;;13.70;99.90;;;;;;2084223;28;20109;-80
2023/06/18 03:48:08;;;;;;;16.75;14.13;;;13.70;99.90;;;;;;2081228;28;20013;-81
2023/06/18 03:49:16;;;;;;;15.10;13.60;;;13.70;99.90;;;;;;2074872;28;20482;-80
2023/06/18 03:50:17;;;;;;;14.30;12.80;;;13.70;99.90;;;;;;2078836;28;20026;-80
2023/06/18 03:51:18;;;;;;;14.60;13.10;;;13.70;99.90;;;;;;2089231;28;20096;-82
2023/06/18 03:52:20;;;;;;;14.82;13.32;;;13.80;99.90;;;;;;2091580;28;20431;-81
2023/06/18 03:53:23;;;;;;;14.95;13.40;;;13.80;99.90;;;;;;2092821;28;20130;-82
2023/06/18 03:54:26;;;;;;;14.80;13.18;;;13.80;99.90;;;;;;2086985;28;20082;-81
2023/06/18 03:55:27;;;;;;;13.63;12.23;;;13.80;99.90;;;;;;2083136;28;20099;-81
2023/06/18 03:56:28;;;;;;;15.85;12.30;;;13.90;99.90;;;;;;2086576;28;20701;-81
2023/06/18 03:57:30;;;;;;;14.63;13.20;;;13.90;99.90;;;;;;2085802;28;20093;-81
2023/06/18 03:58:32;;;;;;;15.13;13.60;;;13.90;99.90;;;;;;2073838;28;20034;-81
2023/06/18 03:59:33;;;;;;;14.82;13.32;;;13.90;99.90;;;;;;2094500;28;20123;-81
2023/06/18 04:00:34;;;;;;;15.93;14.32;;;14.00;99.90;;;;;;2092340;28;20029;-80
2023/06/18 04:01:35;;;;;;;16.67;14.98;;;14.00;99.90;;;;;;2095615;28;20031;-80
2023/06/18 04:02:37;;;;;;;16.45;14.75;;;14.00;99.90;;;;;;2093951;28;20059;-80
2023/06/18 04:03:42;;;;;;;16.60;14.90;;;14.00;99.90;;;;;;2100308;28;20032;-80
2023/06/18 04:04:44;;;;;;;18.00;15.13;;;14.00;99.90;;;;;;2093118;28;20391;-80
2023/06/18 04:05:45;;;;;;;17.20;14.90;;;14.00;99.90;;;;;;2089103;28;20087;-80
2023/06/18 04:06:46;;;;;;;16.50;14.73;;;14.00;99.90;;;;;;2085934;28;20258;-81
2023/06/18 04:07:48;;;;;;;15.75;14.05;;;14.00;99.90;;;;;;2083800;28;20067;-82
2023/06/18 04:08:50;;;;;;;16.73;14.93;;;14.10;99.90;;;;;;2092757;28;20024;-82
2023/06/18 04:09:51;;;;;;;15.02;13.52;;;14.20;99.90;;;;;;2088218;28;20060;-82
2023/06/18 04:10:53;;;;;;;16.08;13.60;;;14.20;99.90;;;;;;2081805;28;20041;-82
2023/06/18 04:11:54;;;;;;;14.82;13.32;;;14.30;99.90;;;;;;2091381;28;20123;-82
2023/06/18 04:12:54;;;;;;;17.45;13.50;;;14.40;99.90;;;;;;2095007;28;20024;-81
2023/06/18 04:13:55;;;;;;;15.10;12.90;;;14.60;99.90;;;;;;2086719;28;20494;-81
2023/06/18 04:14:56;;;;;;;14.05;12.40;;;14.70;99.90;;;;;;2087393;28;20016;-81
2023/06/18 04:15:57;;;;;;;14.10;12.63;;;14.90;99.90;;;;;;2079082;28;20102;-81
2023/06/18 04:16:58;;;;;;;13.32;12.02;;;15.00;99.90;;;;;;2096905;28;20020;-82
2023/06/18 04:17:58;;;;;;;16.08;12.52;;;15.10;99.90;;;;;;2094367;28;20379;-82
2023/06/18 04:19:00;;;;;;;14.00;12.52;;;15.30;99.90;;;;;;2085880;28;20024;-81
2023/06/18 04:20:02;;;;;;;13.80;12.32;;;15.50;99.90;;;;;;2075849;28;20028;-82
2023/06/18 04:21:03;;;;;;;13.50;11.98;;;15.70;99.90;;;;;;2080259;28;20531;-82
2023/06/18 04:22:06;;;;;;;13.32;11.10;;;16.00;99.90;;;;;;2087929;28;20025;-82
2023/06/18 04:23:08;;;;;;;12.75;11.45;;;16.20;99.90;;;;;;2083272;28;20028;-82
2023/06/18 04:24:09;;;;;;;14.75;11.75;;;16.50;99.90;;;;;;2076467;28;20064;-83
2023/06/18 04:25:10;;;;;;;12.35;11.15;;;16.70;99.90;;;;;;2087063;28;20032;-82
2023/06/18 04:26:11;;;;;;;12.73;11.13;;;16.90;99.90;;;;;;2095511;28;20265;-82
2023/06/18 04:27:13;;;;;;;12.32;10.90;;;17.00;99.90;;;;;;2095758;28;20503;-82
2023/06/18 04:28:14;;;;;;;11.60;10.40;;;17.10;99.90;;;;;;2101307;28;20029;-81
2023/06/18 04:29:15;;;;;;;11.85;10.65;;;17.30;99.90;;;;;;2094084;28;20024;-81
2023/06/18 04:30:16;;;;;;;12.25;10.95;;;17.50;99.90;;;;;;2094117;28;20174;-81
2023/06/18 04:31:17;;;;;;;11.65;10.50;;;17.70;99.90;;;;;;2097458;28;20218;-82
2023/06/18 04:32:17;;;;;;;12.52;11.23;;;17.90;99.90;;;;;;2097013;28;20085;-82
2023/06/18 04:33:18;;;;;;;11.75;10.55;;;18.10;99.90;;;;;;2095476;28;20024;-81
2023/06/18 04:34:21;;;;;;;11.38;10.23;;;18.20;99.90;;;;;;2093467;28;20028;-82
2023/06/18 04:35:22;;;;;;;10.88;9.77;;;18.40;99.90;;;;;;2091410;28;20120;-81
2023/06/18 04:36:24;;;;;;;10.13;9.02;;;18.50;99.90;;;;;;2095007;28;20020;-82
2023/06/18 04:37:26;;;;;;;10.70;9.70;;;18.70;99.90;;;;;;2087176;28;20402;-82
2023/06/18 04:38:27;;;;;;;12.23;10.40;;;18.90;99.90;;;;;;2096793;28;20075;-82
2023/06/18 04:39:28;;;;;;;11.20;9.48;;;19.10;99.90;;;;;;2093546;28;20103;-80
2023/06/18 04:40:28;;;;;;;11.70;10.27;;;19.20;99.90;;;;;;2089407;28;20033;-81
2023/06/18 04:41:29;;;;;;;11.40;9.77;;;19.40;99.90;;;;;;2089216;28;20024;-79
2023/06/18 04:42:30;;;;;;;10.35;9.35;;;19.40;99.90;;;;;;2097275;28;20058;-81
2023/06/18 04:43:31;;;;;;;10.20;9.18;;;19.50;99.90;;;;;;2095500;28;20057;-81
2023/06/18 04:44:32;;;;;;;10.40;9.40;;;19.70;99.90;;;;;;2093504;28;20119;-81
2023/06/18 04:45:33;;;;;;;10.15;9.25;;;19.80;99.90;;;;;;2087034;28;20040;-81
2023/06/18 04:46:34;;;;;;;9.88;8.88;;;19.80;99.90;;;;;;2088571;28;20400;-82
2023/06/18 04:47:36;;;;;;;10.00;8.95;;;20.00;99.90;;;;;;2088412;28;20024;-81
2023/06/18 04:48:37;;;;;;;9.95;8.95;;;20.20;99.90;;;;;;2087519;28;20271;-81
2023/06/18 04:49:38;;;;;;;9.27;8.38;;;20.30;99.90;;;;;;2094711;28;20036;-80
2023/06/18 04:50:42;;;;;;;10.45;8.93;;;20.40;99.90;;;;;;2096596;28;20085;-81
2023/06/18 04:51:44;;;;;;;9.32;8.52;;;20.50;99.90;;;;;;2099833;28;20163;-81
2023/06/18 04:52:45;;;;;;;9.75;8.85;;;20.60;99.90;;;;;;2082391;28;20439;-81
2023/06/18 04:53:45;;;;;;;11.55;8.35;;;20.60;99.90;;;;;;2085757;28;20025;-81
2023/06/18 04:54:47;;;;;;;10.63;9.55;;;20.60;99.90;;;;;;2095753;28;20386;-81
2023/06/18 04:55:49;;;;;;;9.77;8.77;;;20.60;99.90;;;;;;2105614;28;20088;-81
2023/06/18 04:56:49;;;;;;;9.10;8.30;;;20.60;99.90;;;;;;2091065;28;20035;-81
2023/06/18 04:57:50;;;;;;;9.70;8.70;;;20.80;99.90;;;;;;2089130;28;20649;-81
2023/06/18 04:58:51;;;;;;;9.45;8.45;;;20.80;99.90;;;;;;2093785;28;20308;-82
2023/06/18 04:59:51;;;;;;;9.40;8.45;;;20.90;99.90;;;;;;2091964;28;20171;-82
2023/06/18 05:00:53;;;;;;;8.98;8.07;;;21.00;99.90;;;;;;2091858;28;20025;-81
2023/06/18 05:01:55;;;;;;;9.07;8.27;;;21.00;99.90;;;;;;2092532;28;20195;-80
2023/06/18 05:02:57;;;;;;;10.60;9.48;;;21.10;99.90;;;;;;2092230;28;20052;-80
2023/06/18 05:03:58;;;;;;;9.98;9.02;;;21.10;99.90;;;;;;2097339;28;20032;-79
2023/06/18 05:04:58;;;;;;;8.85;8.05;;;21.00;99.90;;;;;;2102765;28;20049;-79
2023/06/18 05:05:59;;;;;;;9.23;8.43;;;21.20;99.90;;;;;;2097110;28;20507;-79
2023/06/18 05:07:05;;;;;;;9.38;8.48;;;21.20;99.90;;;;;;2088485;28;20052;-80
2023/06/18 05:08:08;;;;;;;10.20;8.15;;;21.30;99.90;;;;;;2088203;28;20024;-79
2023/06/18 05:09:10;;;;;;;9.65;8.35;;;21.40;99.90;;;;;;2094217;28;20048;-79
2023/06/18 05:10:10;;;;;;;9.18;8.38;;;21.40;99.90;;;;;;2084069;28;20021;-80
2023/06/18 05:11:11;;;;;;;9.20;8.30;;;21.50;99.90;;;;;;2083168;28;20049;-81
2023/06/18 05:12:14;;;;;;;9.00;8.20;;;21.60;99.90;;;;;;2082898;28;20029;-81
2023/06/18 05:13:15;;;;;;;9.13;8.10;;;21.60;99.90;;;;;;2086573;28;20029;-79
2023/06/18 05:14:16;;;;;;;9.20;8.13;;;21.70;99.90;;;;;;2092521;28;20028;-80
2023/06/18 05:15:16;;;;;;;9.43;8.45;;;21.70;99.90;;;;;;2086821;28;20048;-80
2023/06/18 05:16:17;;;;;;;8.65;7.85;;;21.70;99.90;;;;;;2092691;28;20542;-80